CSAV Lonquen — A8OT2 — position and weather

sailwx.info

Track history (hours):
 
Tides and Currents Weather Stations Pressure Air Temp Water Temp Dewpoint Dewpoint Depression Visibility Wind Speed Wind Dir Waves Ship Positions

CSAV Lonquen

Last reported at 2016-May-30 19:25 UTC. Time now 2016-May-31 11:59 UTC.
Position N 32°03' E 030°38'.

Length 261 m; draft 11.4 m.

Type: Ship (hazmat cat A). MMSI: 636091501.

Date/timePositionNaut miles runAvg speedWind from/ knotsBaromVisibWave heightAir tempDewpointWater temp
2016-May-30 19:25N 32°03' E 030°38'2021.6
2016-May-30 18:31N 31°56' E 030°60'2721.4
2016-May-30 17:15N 31°48' E 031°30'1620.5
2016-May-30 16:28N 31°40' E 031°46'1011.5
2016-May-30 15:33N 31°29' E 031°46'7 0.4
2016-May-29 20:03N 31°36' E 031°47'3 3.7
2016-May-29 19:20N 31°39' E 031°46'  
2016-May-25 09:05N 31°14' E 029°45'  
2016-May-22 03:32N 31°14' E 029°45'0 0.2
2016-May-22 02:32N 31°14' E 029°44'0 0.0
2016-May-22 01:32N 31°14' E 029°44'0 0.0
2016-May-22 00:29N 31°14' E 029°44'0 0.0
2016-May-21 19:32N 31°14' E 029°44'0 0.0
2016-May-21 17:14N 31°14' E 029°44'0 0.2
2016-May-21 16:30N 31°14' E 029°44'24 9.9
2016-May-21 14:06N 31°33' E 029°60'710.0
2016-May-21 13:27N 31°38' E 030°04'9 9.8
2016-May-21 12:32N 31°46' E 030°11'10 9.7
2016-May-21 11:27N 31°52' E 030°21'1410.2
2016-May-21 10:04N 31°57' E 030°36'  
Track history (hours):
 
Tides and Currents Weather Stations Pressure Air Temp Water Temp Dewpoint Dewpoint Depression Visibility Wind Speed Wind Dir Waves Ship Positions

CSAV Lonquen

Last reported at 2016-May-30 19:25 UTC. Time now 2016-May-31 11:59 UTC.
Position N 32°03' E 030°38'.

Length 261 m; draft 11.4 m.

Type: Ship (hazmat cat A). MMSI: 636091501.

Date/timePositionNaut miles runAvg speedWind from/ knotsBaromVisibWave heightAir tempDewpointWater temp
2016-May-30 19:25N 32°03' E 030°38'2021.6
2016-May-30 18:31N 31°56' E 030°60'2721.4
2016-May-30 17:15N 31°48' E 031°30'1620.5
2016-May-30 16:28N 31°40' E 031°46'1011.5
2016-May-30 15:33N 31°29' E 031°46'7 0.4
2016-May-29 20:03N 31°36' E 031°47'3 3.7
2016-May-29 19:20N 31°39' E 031°46'  
2016-May-25 09:05N 31°14' E 029°45'  
2016-May-22 03:32N 31°14' E 029°45'0 0.2
2016-May-22 02:32N 31°14' E 029°44'0 0.0
2016-May-22 01:32N 31°14' E 029°44'0 0.0
2016-May-22 00:29N 31°14' E 029°44'0 0.0
2016-May-21 19:32N 31°14' E 029°44'0 0.0
2016-May-21 17:14N 31°14' E 029°44'0 0.2
2016-May-21 16:30N 31°14' E 029°44'24 9.9
2016-May-21 14:06N 31°33' E 029°60'710.0
2016-May-21 13:27N 31°38' E 030°04'9 9.8
2016-May-21 12:32N 31°46' E 030°11'10 9.7
2016-May-21 11:27N 31°52' E 030°21'1410.2
2016-May-21 10:04N 31°57' E 030°36'  

Dump ship's entire track history